Time;durP1;ratioP1;P1;durP2;ratioP2;P2;SDS_P1;SDS_P2;PMS_P1;PMS_P2;Temp;Humidity;BMP_temperature;BMP_pressure;BME280_temperature;BME280_humidity;BME280_pressure;Samples;Min_cycle;Max_cycle;Signal;HPM_P1;HPM_P2
2023/04/03 00:01:06;;;;;;;3.90;3.30;;;4.70;99.90;;;;;;4971444;28;20201;-43
2023/04/03 00:03:32;;;;;;;3.50;3.20;;;4.70;99.90;;;;;;4971430;28;20637;-46
2023/04/03 00:05:58;;;;;;;5.57;3.55;;;;;;;;;;4969658;28;20183;-42
2023/04/03 00:08:23;;;;;;;5.43;3.95;;;4.60;99.90;;;;;;4970920;28;20693;-43
2023/04/03 00:10:49;;;;;;;3.63;3.33;;;4.60;99.90;;;;;;4971107;28;20533;-44
2023/04/03 00:13:15;;;;;;;6.30;3.90;;;4.50;99.90;;;;;;4970945;28;20215;-43
2023/04/03 00:15:41;;;;;;;4.82;3.28;;;4.50;99.90;;;;;;4977431;28;20643;-42
2023/04/03 00:18:07;;;;;;;5.47;3.63;;;4.50;99.90;;;;;;4990414;28;20176;-43
2023/04/03 00:20:33;;;;;;;4.95;3.80;;;4.50;99.90;;;;;;4990664;28;20169;-43
2023/04/03 00:22:59;;;;;;;6.95;3.10;;;4.50;99.90;;;;;;4990329;28;20211;-43
2023/04/03 00:25:24;;;;;;;3.80;3.42;;;4.50;99.90;;;;;;4989927;28;20207;-44
2023/04/03 00:27:50;;;;;;;5.30;3.58;;;4.50;99.90;;;;;;4990217;28;20579;-43
2023/04/03 00:30:18;;;;;;;5.70;4.05;;;4.40;99.90;;;;;;4990206;28;20175;-43
2023/04/03 00:32:44;;;;;;;5.53;3.75;;;4.40;99.90;;;;;;4989929;28;20216;-44
2023/04/03 00:35:10;;;;;;;3.92;3.53;;;;;;;;;;4990186;28;20263;-43
2023/04/03 00:37:36;;;;;;;6.00;3.78;;;4.40;99.90;;;;;;4989883;28;20177;-43
2023/04/03 00:40:03;;;;;;;8.02;4.38;;;4.40;99.90;;;;;;4990451;28;20165;-42
2023/04/03 00:42:29;;;;;;;4.00;3.60;;;4.30;99.90;;;;;;4990069;28;20183;-43
2023/04/03 00:44:57;;;;;;;4.20;3.65;;;4.30;99.90;;;;;;4989156;28;20165;-43
2023/04/03 00:47:24;;;;;;;6.85;3.97;;;4.20;99.90;;;;;;4970360;28;20177;-42
2023/04/03 00:49:51;;;;;;;4.68;3.00;;;4.30;99.90;;;;;;4970504;28;20166;-42
2023/04/03 00:52:23;;;;;;;4.18;3.55;;;4.20;99.90;;;;;;4970312;28;20236;-43
2023/04/03 00:54:52;;;;;;;4.05;3.22;;;4.20;99.90;;;;;;4970318;28;20222;-47
2023/04/03 00:57:18;;;;;;;5.43;3.40;;;4.10;99.90;;;;;;4970430;28;20195;-42
2023/04/03 00:59:50;;;;;;;4.35;3.10;;;4.10;99.90;;;;;;4970371;28;20193;-44
2023/04/03 01:02:16;;;;;;;3.10;2.80;;;;;;;;;;4970578;28;20177;-43
2023/04/03 01:04:43;;;;;;;4.70;2.95;;;4.00;99.90;;;;;;4969081;28;20185;-43
2023/04/03 01:07:26;;;;;;;6.15;3.33;;;4.00;99.90;;;;;;4970102;28;20170;-43
2023/04/03 01:09:56;;;;;;;4.28;3.42;;;3.90;99.90;;;;;;4970377;28;20203;-43
2023/04/03 01:12:29;;;;;;;3.97;3.63;;;3.90;99.90;;;;;;4969787;28;20800;-42
2023/04/03 01:15:00;;;;;;;4.18;3.63;;;3.90;99.90;;;;;;4984017;28;20180;-44
2023/04/03 01:17:37;;;;;;;4.47;3.60;;;3.90;99.90;;;;;;4989217;28;20179;-44
2023/04/03 01:20:22;;;;;;;4.75;3.70;;;3.70;99.90;;;;;;4989851;28;20169;-43
2023/04/03 01:22:51;;;;;;;6.50;4.10;;;3.80;99.90;;;;;;4989405;28;20629;-43
2023/04/03 01:25:17;;;;;;;5.28;3.40;;;3.70;99.90;;;;;;4989703;28;20283;-43
2023/04/03 01:27:43;;;;;;;6.40;3.80;;;3.70;99.90;;;;;;4989387;28;20321;-47
2023/04/03 01:30:09;;;;;;;4.18;3.78;;;3.80;99.90;;;;;;4988183;28;20169;-43
2023/04/03 01:32:35;;;;;;;6.70;3.92;;;3.70;99.90;;;;;;4989152;28;20691;-42
2023/04/03 01:35:00;;;;;;;4.15;3.70;;;3.60;99.90;;;;;;4989564;28;20169;-45
2023/04/03 01:37:26;;;;;;;4.22;3.80;;;3.60;99.90;;;;;;4989203;28;20173;-47
2023/04/03 01:39:51;;;;;;;3.92;3.35;;;3.60;99.90;;;;;;4989313;28;20176;-46
2023/04/03 01:42:17;;;;;;;3.97;3.55;;;3.50;99.90;;;;;;4987343;28;20172;-46
2023/04/03 01:44:43;;;;;;;4.28;3.80;;;;;;;;;;4989344;28;20206;-46
2023/04/03 01:47:08;;;;;;;4.63;3.83;;;3.50;99.90;;;;;;4989200;28;20707;-45
2023/04/03 01:49:34;;;;;;;4.53;3.88;;;;;;;;;;4989450;28;20256;-47
2023/04/03 01:52:00;;;;;;;4.20;3.80;;;3.50;99.90;;;;;;4989373;28;20238;-45
2023/04/03 01:54:25;;;;;;;4.50;3.90;;;3.40;99.90;;;;;;4988910;28;20172;-48
2023/04/03 01:56:51;;;;;;;4.10;3.63;;;3.30;99.90;;;;;;4988852;28;20251;-46
2023/04/03 01:59:17;;;;;;;6.20;4.32;;;3.30;99.90;;;;;;4988990;28;20252;-44
2023/04/03 02:01:45;;;;;;;7.47;4.25;;;3.40;99.90;;;;;;4981192;28;20170;-46
2023/04/03 02:04:11;;;;;;;5.45;4.55;;;3.40;99.90;;;;;;4967754;28;20618;-46
2023/04/03 02:06:36;;;;;;;6.05;4.55;;;3.30;99.90;;;;;;4969349;28;20264;-47
2023/04/03 02:09:03;;;;;;;5.63;4.43;;;3.30;99.90;;;;;;4969707;28;20256;-49
2023/04/03 02:11:28;;;;;;;5.00;4.50;;;3.30;99.90;;;;;;4969340;28;20185;-47
2023/04/03 02:13:54;;;;;;;5.55;4.60;;;3.30;99.90;;;;;;4969332;28;20174;-43
2023/04/03 02:16:20;;;;;;;5.40;4.35;;;3.30;99.90;;;;;;4969529;28;20166;-44
2023/04/03 02:18:45;;;;;;;6.75;4.63;;;3.20;99.90;;;;;;4969323;28;20178;-42
2023/04/03 02:21:11;;;;;;;4.82;4.07;;;;;;;;;;4973406;28;20184;-43
2023/04/03 02:23:37;;;;;;;6.88;4.70;;;3.30;99.90;;;;;;4988357;28;20173;-42
2023/04/03 02:26:11;;;;;;;8.10;5.25;;;3.30;99.90;;;;;;4988892;28;20169;-44
2023/04/03 02:28:37;;;;;;;6.40;5.10;;;3.20;99.90;;;;;;4989774;28;20160;-48
2023/04/03 02:31:06;;;;;;;9.30;5.13;;;3.20;99.90;;;;;;4992297;28;20309;-48
2023/04/03 02:33:31;;;;;;;5.43;4.65;;;3.10;99.90;;;;;;4992522;28;20253;-46
2023/04/03 02:35:58;;;;;;;7.88;5.28;;;3.20;99.90;;;;;;4990663;28;20255;-49
2023/04/03 02:38:24;;;;;;;8.27;5.40;;;3.10;99.90;;;;;;4991858;28;20196;-47
2023/04/03 02:40:50;;;;;;;6.40;5.15;;;;;;;;;;4987835;28;20173;-48
2023/04/03 02:43:16;;;;;;;8.82;5.30;;;3.20;99.90;;;;;;4972387;28;20215;-46
2023/04/03 02:45:42;;;;;;;9.38;5.32;;;;;;;;;;4972612;28;20200;-48
2023/04/03 02:48:07;;;;;;;8.32;5.18;;;3.10;99.90;;;;;;4971887;28;20648;-43
2023/04/03 02:50:33;;;;;;;7.40;4.93;;;3.10;99.90;;;;;;4972554;28;20613;-42
2023/04/03 02:52:59;;;;;;;7.75;5.55;;;3.10;99.90;;;;;;4972531;28;20209;-43
2023/04/03 02:55:25;;;;;;;10.60;5.38;;;;;;;;;;4972297;28;20170;-42
2023/04/03 02:57:51;;;;;;;6.75;5.13;;;3.10;99.90;;;;;;4972323;28;20201;-43
2023/04/03 03:00:17;;;;;;;9.45;4.97;;;3.10;99.90;;;;;;4973221;28;20205;-43
2023/04/03 03:02:43;;;;;;;10.35;4.93;;;;;;;;;;4986119;28;20181;-44
2023/04/03 03:05:09;;;;;;;7.85;5.43;;;;;;;;;;4972049;28;20183;-47
2023/04/03 03:07:35;;;;;;;9.57;5.47;;;3.10;99.90;;;;;;4971921;28;20177;-48
2023/04/03 03:10:00;;;;;;;5.75;4.95;;;3.00;99.90;;;;;;4972561;28;20170;-49
2023/04/03 03:12:26;;;;;;;5.97;5.22;;;3.10;99.90;;;;;;4972004;28;20748;-45
2023/04/03 03:14:51;;;;;;;5.22;4.57;;;3.00;99.90;;;;;;4971871;28;20173;-47
2023/04/03 03:17:17;;;;;;;5.07;4.55;;;2.90;99.90;;;;;;4971932;28;20173;-46
2023/04/03 03:19:43;;;;;;;7.32;4.72;;;2.90;99.90;;;;;;4971803;28;20222;-48
2023/04/03 03:22:09;;;;;;;5.95;4.68;;;;;;;;;;4990479;28;20176;-47
2023/04/03 03:24:35;;;;;;;5.80;4.95;;;2.80;99.90;;;;;;4991247;28;20180;-42
2023/04/03 03:27:00;;;;;;;6.25;5.15;;;2.90;99.90;;;;;;4991844;28;20540;-42
2023/04/03 03:29:26;;;;;;;7.43;4.47;;;2.80;99.90;;;;;;4990858;28;20180;-42
2023/04/03 03:31:51;;;;;;;6.28;4.82;;;2.80;99.90;;;;;;4989790;28;20288;-44
2023/04/03 03:34:17;;;;;;;6.60;4.60;;;2.80;99.90;;;;;;4991081;28;20177;-43
2023/04/03 03:36:43;;;;;;;5.22;4.57;;;2.90;99.90;;;;;;4991423;28;20176;-42
2023/04/03 03:39:09;;;;;;;9.35;4.88;;;;;;;;;;4990930;28;20544;-43
2023/04/03 03:41:34;;;;;;;5.70;4.47;;;2.70;99.90;;;;;;4991242;28;20574;-41
2023/04/03 03:44:00;;;;;;;5.63;4.55;;;2.70;99.90;;;;;;4991312;28;20237;-42
2023/04/03 03:46:25;;;;;;;6.90;5.10;;;2.70;99.90;;;;;;4990777;28;20639;-42
2023/04/03 03:48:51;;;;;;;7.35;4.93;;;;;;;;;;4990809;28;20259;-42
2023/04/03 03:51:17;;;;;;;5.30;4.13;;;2.60;99.90;;;;;;4979031;28;20177;-43
2023/04/03 03:53:43;;;;;;;7.82;4.68;;;;;;;;;;4971199;28;20217;-42
2023/04/03 03:56:08;;;;;;;6.18;5.18;;;2.50;99.90;;;;;;4971313;28;20203;-42
2023/04/03 03:58:34;;;;;;;7.10;4.88;;;2.50;99.90;;;;;;4971263;28;20197;-42
2023/04/03 04:01:07;;;;;;;5.03;4.43;;;2.50;99.90;;;;;;4971452;28;20226;-42
2023/04/03 04:03:32;;;;;;;8.30;5.47;;;2.50;99.90;;;;;;4971563;28;20208;-42
2023/04/03 04:05:58;;;;;;;7.10;4.97;;;;;;;;;;4971075;28;20205;-42
2023/04/03 04:08:24;;;;;;;7.47;4.35;;;2.50;99.90;;;;;;4970998;28;20221;-42
2023/04/03 04:10:50;;;;;;;5.88;4.22;;;2.40;99.90;;;;;;4971064;28;20173;-43
2023/04/03 04:13:16;;;;;;;7.72;4.32;;;2.50;99.90;;;;;;4971108;28;20677;-42
2023/04/03 04:15:43;;;;;;;8.13;4.47;;;2.40;99.90;;;;;;4971066;28;20196;-43
2023/04/03 04:18:08;;;;;;;8.57;5.07;;;2.40;99.90;;;;;;4971045;28;20184;-43
2023/04/03 04:20:34;;;;;;;7.80;5.00;;;2.40;99.90;;;;;;4976224;28;20177;-42
2023/04/03 04:23:00;;;;;;;7.68;5.47;;;;;;;;;;4990953;28;20303;-42
2023/04/03 04:25:25;;;;;;;8.48;5.88;;;2.40;99.90;;;;;;4990301;28;20200;-43
2023/04/03 04:27:51;;;;;;;10.70;5.50;;;2.40;99.90;;;;;;4990263;28;20172;-42
2023/04/03 04:30:17;;;;;;;7.15;5.18;;;2.40;99.90;;;;;;4989757;28;20679;-42
2023/04/03 04:32:42;;;;;;;7.25;5.32;;;2.40;99.90;;;;;;4990223;28;20216;-45
2023/04/03 04:35:08;;;;;;;6.88;4.03;;;2.30;99.90;;;;;;5057571;28;20174;-44
2023/04/03 04:37:34;;;;;;;5.13;4.15;;;2.20;99.90;;;;;;5070667;28;20170;-44
2023/04/03 04:40:00;;;;;;;7.00;4.93;;;2.20;99.90;;;;;;5072740;28;20166;-46
2023/04/03 04:42:25;;;;;;;6.93;4.75;;;2.20;99.90;;;;;;5072110;28;20189;-46
2023/04/03 04:44:51;;;;;;;8.45;4.70;;;2.40;99.90;;;;;;5072087;28;20174;-44
2023/04/03 04:47:16;;;;;;;8.18;4.22;;;2.30;99.90;;;;;;5072079;28;20249;-44
2023/04/03 04:49:42;;;;;;;8.68;4.40;;;2.30;99.90;;;;;;5071878;28;20178;-44
2023/04/03 04:52:08;;;;;;;7.10;4.75;;;2.30;99.90;;;;;;4993405;28;20239;-43
2023/04/03 04:54:34;;;;;;;9.95;4.55;;;;;;;;;;4982874;28;20626;-44
2023/04/03 04:57:00;;;;;;;5.53;3.90;;;;;;;;;;4979852;28;20671;-47
2023/04/03 04:59:25;;;;;;;5.25;3.80;;;2.30;99.90;;;;;;4982899;28;20646;-44
2023/04/03 05:01:51;;;;;;;6.10;4.38;;;2.40;99.90;;;;;;4984998;28;20180;-43
2023/04/03 05:04:17;;;;;;;5.45;4.25;;;2.40;99.90;;;;;;4970362;28;20506;-47
2023/04/03 05:06:42;;;;;;;6.63;4.07;;;2.30;99.90;;;;;;4970215;28;20270;-44
2023/04/03 05:09:09;;;;;;;6.43;4.20;;;;;;;;;;4980266;28;20221;-49
2023/04/03 05:11:35;;;;;;;5.40;4.25;;;;;;;;;;4981749;28;20209;-46
2023/04/03 05:14:01;;;;;;;8.35;5.65;;;2.30;99.90;;;;;;4970640;28;20181;-43
2023/04/03 05:16:27;;;;;;;15.00;6.90;;;2.20;99.90;;;;;;4969635;28;20176;-47
2023/04/03 05:18:53;;;;;;;7.53;4.93;;;;;;;;;;4966461;28;20248;-47
2023/04/03 05:21:18;;;;;;;7.00;4.10;;;2.20;99.90;;;;;;4969833;28;20162;-48
2023/04/03 05:23:44;;;;;;;5.15;3.78;;;2.20;99.90;;;;;;4979211;28;20220;-45
2023/04/03 05:26:10;;;;;;;5.75;3.95;;;2.20;99.90;;;;;;4988782;28;20288;-47
2023/04/03 05:28:36;;;;;;;9.05;4.88;;;2.20;99.90;;;;;;4983970;28;20656;-46
2023/04/03 05:31:02;;;;;;;14.57;4.45;;;2.20;99.90;;;;;;4970532;28;20242;-49
2023/04/03 05:33:27;;;;;;;9.43;4.20;;;2.30;99.90;;;;;;4987376;28;20656;-49
2023/04/03 05:35:54;;;;;;;6.32;4.10;;;2.40;99.90;;;;;;4989101;28;20659;-49
2023/04/03 05:38:20;;;;;;;5.30;4.18;;;2.40;99.90;;;;;;4989284;28;20215;-49
2023/04/03 05:40:48;;;;;;;6.28;3.47;;;2.40;99.90;;;;;;4989458;28;20176;-45
2023/04/03 05:43:14;;;;;;;5.07;3.55;;;2.50;99.90;;;;;;4989158;28;20192;-48
2023/04/03 05:45:40;;;;;;;6.88;4.20;;;;;;;;;;4989315;28;20274;-49
2023/04/03 05:48:06;;;;;;;4.60;3.78;;;2.50;99.90;;;;;;4989186;28;20173;-49
2023/04/03 05:50:31;;;;;;;6.13;4.03;;;2.60;99.90;;;;;;4989465;28;20161;-44
2023/04/03 05:52:58;;;;;;;6.88;3.60;;;2.60;99.90;;;;;;4988906;28;20204;-46
2023/04/03 05:55:24;;;;;;;6.43;3.80;;;2.60;99.90;;;;;;4989027;28;20632;-47
2023/04/03 05:57:50;;;;;;;7.05;3.75;;;2.70;99.90;;;;;;4989210;28;20199;-49
2023/04/03 06:00:16;;;;;;;4.47;3.42;;;2.80;99.90;;;;;;4970229;28;20185;-48
2023/04/03 06:02:42;;;;;;;5.40;3.63;;;2.90;99.90;;;;;;4969551;28;20621;-47
2023/04/03 06:05:11;;;;;;;7.68;3.90;;;2.90;99.90;;;;;;4972924;28;20272;-44
2023/04/03 06:07:36;;;;;;;7.07;3.28;;;3.00;99.90;;;;;;4972783;28;20172;-43
2023/04/03 06:10:03;;;;;;;4.97;3.67;;;3.10;99.90;;;;;;4973233;28;20173;-45
2023/04/03 06:12:29;;;;;;;6.80;3.50;;;;;;;;;;4973271;28;20739;-43
2023/04/03 06:14:55;;;;;;;7.70;3.42;;;3.20;99.90;;;;;;4972875;28;20173;-45
2023/04/03 06:17:21;;;;;;;5.25;4.00;;;;;;;;;;4972747;28;20671;-44
2023/04/03 06:19:47;;;;;;;5.70;3.33;;;;;;;;;;4988663;28;20211;-44
2023/04/03 06:22:13;;;;;;;5.85;3.50;;;3.40;99.90;;;;;;4992116;28;20176;-45
2023/04/03 06:24:39;;;;;;;4.47;3.08;;;3.30;99.90;;;;;;4992132;28;20645;-47
2023/04/03 06:27:05;;;;;;;5.85;3.08;;;3.30;99.90;;;;;;4991693;28;20184;-44
2023/04/03 06:29:30;;;;;;;3.85;2.60;;;3.20;99.90;;;;;;4992627;28;20185;-44
2023/04/03 06:31:56;;;;;;;4.88;2.88;;;3.40;99.90;;;;;;4991733;28;20205;-43
2023/04/03 06:34:22;;;;;;;6.70;2.30;;;3.40;99.90;;;;;;4992084;28;20176;-44
2023/04/03 06:36:50;;;;;;;8.05;3.53;;;;;;;;;;4990528;28;20173;-45
2023/04/03 06:39:22;;;;;;;4.80;2.90;;;3.70;99.90;;;;;;4992194;28;20180;-44
2023/04/03 06:41:49;;;;;;;5.95;2.97;;;3.70;99.90;;;;;;4992112;28;20176;-47
2023/04/03 06:44:15;;;;;;;6.53;3.60;;;3.80;99.90;;;;;;4991847;28;20187;-45
2023/04/03 06:46:42;;;;;;;6.70;3.30;;;3.90;99.90;;;;;;4991970;28;20176;-43
2023/04/03 06:49:08;;;;;;;6.38;3.17;;;3.90;99.90;;;;;;4989773;28;20230;-46
2023/04/03 06:51:35;;;;;;;6.22;2.90;;;;;;;;;;4991396;28;20184;-47
2023/04/03 06:54:00;;;;;;;4.32;2.63;;;3.90;99.90;;;;;;4991957;28;20180;-44
2023/04/03 06:56:27;;;;;;;3.60;2.63;;;4.10;99.90;;;;;;4991549;28;20176;-45
2023/04/03 06:58:56;;;;;;;6.28;2.75;;;4.20;99.90;;;;;;4991579;28;20191;-48
2023/04/03 07:01:23;;;;;;;4.95;3.00;;;4.30;99.90;;;;;;4991962;28;20632;-47
2023/04/03 07:03:49;;;;;;;10.77;4.60;;;4.40;99.90;;;;;;4991558;28;20222;-44
2023/04/03 07:06:17;;;;;;;4.68;3.03;;;4.40;99.90;;;;;;4991673;28;20173;-43
2023/04/03 07:08:43;;;;;;;7.03;2.92;;;;;;;;;;4991169;28;20604;-44
2023/04/03 07:11:10;;;;;;;20.30;3.35;;;4.80;99.90;;;;;;4991597;28;20184;-44
2023/04/03 07:13:36;;;;;;;3.20;2.50;;;4.70;99.90;;;;;;4991237;28;20197;-43
2023/04/03 07:16:04;;;;;;;7.00;2.85;;;;;;;;;;4991431;28;20180;-43
2023/04/03 07:18:30;;;;;;;7.70;3.17;;;;;;;;;;4989733;28;20247;-46
2023/04/03 07:20:56;;;;;;;4.05;2.90;;;4.70;99.90;;;;;;4970673;28;20185;-43
2023/04/03 07:23:21;;;;;;;5.20;2.90;;;5.00;99.90;;;;;;4971762;28;20613;-43
2023/04/03 07:25:49;;;;;;;4.88;3.30;;;5.10;99.90;;;;;;4970485;28;20170;-44
2023/04/03 07:28:17;;;;;;;6.47;2.35;;;5.20;99.90;;;;;;4971868;28;20176;-43
2023/04/03 07:30:47;;;;;;;4.47;3.05;;;5.30;99.90;;;;;;4971516;28;20182;-43
2023/04/03 07:33:14;;;;;;;4.35;2.65;;;5.40;99.90;;;;;;4971890;28;20221;-43
2023/04/03 07:35:40;;;;;;;7.18;3.55;;;;;;;;;;4971755;28;20201;-44
2023/04/03 07:38:06;;;;;;;8.10;3.30;;;5.30;99.90;;;;;;4971502;28;20165;-43
2023/04/03 07:40:32;;;;;;;5.32;2.50;;;5.40;99.90;;;;;;4971988;28;20226;-45
2023/04/03 07:42:58;;;;;;;4.57;2.65;;;5.40;99.90;;;;;;4971856;28;20629;-45
2023/04/03 07:45:24;;;;;;;6.22;2.70;;;5.60;99.90;;;;;;4971566;28;20173;-44
2023/04/03 07:47:50;;;;;;;4.65;2.60;;;5.80;99.90;;;;;;4981002;28;20640;-47
2023/04/03 07:50:16;;;;;;;8.15;2.40;;;;;;;;;;4991029;28;20200;-47
2023/04/03 07:52:42;;;;;;;4.95;2.47;;;5.70;99.90;;;;;;4991071;28;20277;-47
2023/04/03 07:55:08;;;;;;;3.28;2.17;;;5.90;99.90;;;;;;4991032;28;20584;-45
2023/04/03 07:57:33;;;;;;;5.28;1.95;;;5.90;99.90;;;;;;4990633;28;20187;-47
2023/04/03 07:59:59;;;;;;;4.90;2.28;;;6.00;99.90;;;;;;4990874;28;20169;-48
2023/04/03 08:02:25;;;;;;;4.28;1.73;;;6.10;99.90;;;;;;4990599;28;20204;-48
2023/04/03 08:04:50;;;;;;;3.42;1.50;;;6.30;99.90;;;;;;4990641;28;20179;-47
2023/04/03 08:07:16;;;;;;;3.28;2.00;;;6.40;99.90;;;;;;4990730;28;20161;-46
2023/04/03 08:09:41;;;;;;;3.25;1.80;;;6.30;99.90;;;;;;4990355;28;20227;-48
2023/04/03 08:12:07;;;;;;;2.90;1.50;;;;;;;;;;4990351;28;20211;-48
2023/04/03 08:14:36;;;;;;;3.20;1.80;;;6.50;99.90;;;;;;4990448;28;20169;-47
2023/04/03 08:17:04;;;;;;;3.63;1.70;;;;;;;;;;4984906;28;20724;-44
2023/04/03 08:19:30;;;;;;;1.95;1.42;;;6.80;99.90;;;;;;4971353;28;20177;-47
2023/04/03 08:21:56;;;;;;;4.90;1.80;;;6.90;99.90;;;;;;4970915;28;20215;-46
2023/04/03 08:24:22;;;;;;;2.85;1.80;;;6.90;99.90;;;;;;4971017;28;20617;-47
2023/04/03 08:26:47;;;;;;;4.78;1.75;;;6.90;99.90;;;;;;4969883;28;20227;-43
2023/04/03 08:29:13;;;;;;;3.92;1.70;;;6.80;99.90;;;;;;4970773;28;20170;-48
2023/04/03 08:31:39;;;;;;;3.28;1.50;;;;;;;;;;4970935;28;20180;-48
2023/04/03 08:34:05;;;;;;;6.82;1.73;;;;;;;;;;4970873;28;20634;-48
2023/04/03 08:36:31;;;;;;;2.17;1.40;;;;;;;;;;4971318;28;20248;-47
2023/04/03 08:38:57;;;;;;;1.88;1.17;;;7.00;99.90;;;;;;4971020;28;20190;-48
2023/04/03 08:41:46;;;;;;;5.18;1.60;;;7.10;99.90;;;;;;4970900;28;20177;-47
2023/04/03 08:44:17;;;;;;;2.72;1.50;;;7.30;99.90;;;;;;4970823;28;20540;-48
2023/04/03 08:46:50;;;;;;;5.70;1.63;;;7.40;99.90;;;;;;4969841;28;20174;-49
2023/04/03 08:49:46;;;;;;;6.20;1.58;;;7.30;99.90;;;;;;4970463;28;20165;-47
2023/04/03 08:52:17;;;;;;;3.30;1.92;;;7.30;99.90;;;;;;4970379;28;20188;-44
2023/04/03 08:54:49;;;;;;;2.80;1.30;;;7.20;99.90;;;;;;4970355;28;20174;-48
2023/04/03 08:57:15;;;;;;;3.55;1.40;;;7.40;99.90;;;;;;4970302;28;20184;-47
2023/04/03 08:59:41;;;;;;;3.38;1.92;;;7.50;99.90;;;;;;4970574;28;20177;-47
2023/04/03 09:02:28;;;;;;;2.42;1.33;;;7.60;99.90;;;;;;4970349;28;20664;-47
2023/04/03 09:04:53;;;;;;;3.40;1.48;;;7.70;99.90;;;;;;4969114;28;20234;-48
2023/04/03 09:07:32;;;;;;;2.72;1.60;;;7.80;99.90;;;;;;4970328;28;20633;-47
2023/04/03 09:10:01;;;;;;;1.90;1.33;;;7.90;99.90;;;;;;4970535;28;20185;-47
2023/04/03 09:12:39;;;;;;;2.83;1.33;;;8.00;99.90;;;;;;4970193;28;20212;-47
2023/04/03 09:15:14;;;;;;;2.88;1.42;;;8.20;99.90;;;;;;4970070;28;20169;-45
2023/04/03 09:17:43;;;;;;;2.92;1.13;;;8.20;98.10;;;;;;4983004;28;20286;-48
2023/04/03 09:20:24;;;;;;;1.88;1.02;;;8.10;95.40;;;;;;4989489;28;20169;-48
2023/04/03 09:22:52;;;;;;;4.93;1.60;;;8.20;97.20;;;;;;4989716;28;20184;-47
2023/04/03 09:25:25;;;;;;;1.45;1.30;;;8.30;93.70;;;;;;4989501;28;20251;-48
2023/04/03 09:27:51;;;;;;;3.60;1.40;;;8.40;93.20;;;;;;4989570;28;20209;-44
2023/04/03 09:30:22;;;;;;;2.45;1.20;;;8.50;93.50;;;;;;4989496;28;20165;-49
2023/04/03 09:32:51;;;;;;;1.52;1.27;;;8.40;92.30;;;;;;4989425;28;20204;-47
2023/04/03 09:35:21;;;;;;;4.38;1.52;;;8.40;92.60;;;;;;4989330;28;20161;-44
2023/04/03 09:37:53;;;;;;;2.17;1.33;;;8.60;93.20;;;;;;4989200;28;20200;-44
2023/04/03 09:40:25;;;;;;;3.55;1.15;;;8.60;93.00;;;;;;4989494;28;20222;-44
2023/04/03 09:42:53;;;;;;;5.38;1.88;;;8.70;92.30;;;;;;4989347;28;20225;-44
2023/04/03 09:45:28;;;;;;;3.65;1.50;;;8.70;92.40;;;;;;4988027;28;20179;-43
2023/04/03 09:48:14;;;;;;;2.33;1.52;;;8.80;92.80;;;;;;4974758;28;20184;-43
2023/04/03 09:50:56;;;;;;;6.97;1.63;;;8.70;92.50;;;;;;4950179;28;20174;-43
2023/04/03 09:53:42;;;;;;;2.42;1.40;;;8.70;93.20;;;;;;4949962;28;20621;-43
2023/04/03 09:56:16;;;;;;;2.65;1.80;;;8.80;93.30;;;;;;4950090;28;20177;-43
2023/04/03 09:58:48;;;;;;;4.97;1.50;;;8.90;92.80;;;;;;4950247;28;20169;-43
2023/04/03 10:01:28;;;;;;;3.58;1.63;;;9.00;92.90;;;;;;4950327;28;20224;-43
2023/04/03 10:04:15;;;;;;;1.88;1.27;;;9.10;93.80;;;;;;4948896;28;20170;-44
2023/04/03 10:06:46;;;;;;;2.97;1.40;;;9.20;93.50;;;;;;4950128;28;20259;-45
2023/04/03 10:09:22;;;;;;;4.20;1.50;;;9.40;94.40;;;;;;4950108;28;20221;-43
2023/04/03 10:12:06;;;;;;;4.43;1.40;;;9.30;93.70;;;;;;4950189;28;20257;-43
2023/04/03 10:14:37;;;;;;;4.57;1.25;;;9.60;93.90;;;;;;4950148;28;20190;-43
2023/04/03 10:17:26;;;;;;;3.10;1.48;;;9.50;86.40;;;;;;4964231;28;20637;-45
2023/04/03 10:20:13;;;;;;;2.70;1.45;;;9.70;86.30;;;;;;4997147;28;20272;-44
2023/04/03 10:22:56;;;;;;;4.65;1.52;;;9.60;83.90;;;;;;4988931;28;20177;-43
2023/04/03 10:25:46;;;;;;;2.72;1.40;;;9.60;86.20;;;;;;4988339;28;20253;-43
2023/04/03 10:28:34;;;;;;;4.00;1.48;;;9.70;88.30;;;;;;4988492;28;20173;-44
2023/04/03 10:31:42;;;;;;;2.45;1.45;;;10.00;88.70;;;;;;4988996;28;20561;-43
2023/04/03 10:34:37;;;;;;;1.67;0.95;;;9.90;86.40;;;;;;4988531;28;20269;-43
2023/04/03 10:37:13;;;;;;;4.30;1.55;;;9.90;85.00;;;;;;4988704;28;20184;-43
2023/04/03 10:40:02;;;;;;;1.52;1.27;;;10.20;86.00;;;;;;4988171;28;20169;-48
2023/04/03 10:42:46;;;;;;;1.55;1.30;;;10.20;84.40;;;;;;4988972;28;20525;-44
2023/04/03 10:45:32;;;;;;;2.85;1.05;;;10.00;82.90;;;;;;4988631;28;20255;-43
2023/04/03 10:48:10;;;;;;;2.95;1.45;;;10.00;82.50;;;;;;4974438;28;20212;-43
2023/04/03 10:51:02;;;;;;;2.50;1.55;;;9.90;87.90;;;;;;4971573;28;20169;-43
2023/04/03 10:53:32;;;;;;;4.43;2.03;;;10.00;83.80;;;;;;4972633;28;20611;-46
2023/04/03 10:56:10;;;;;;;2.10;1.40;;;10.20;83.30;;;;;;4972721;28;20181;-42
2023/04/03 10:58:43;;;;;;;5.60;1.70;;;10.20;82.40;;;;;;4972286;28;20175;-45
2023/04/03 11:01:18;;;;;;;3.67;1.73;;;10.40;82.00;;;;;;4955021;28;20584;-41
2023/04/03 11:03:49;;;;;;;2.70;1.65;;;10.40;84.70;;;;;;4972079;28;20176;-42
2023/04/03 11:06:17;;;;;;;1.70;1.33;;;10.50;83.40;;;;;;4970565;28;20177;-42
2023/04/03 11:09:07;;;;;;;2.65;1.23;;;10.60;83.30;;;;;;4971781;28;20268;-45
2023/04/03 11:11:36;;;;;;;3.83;1.45;;;10.60;81.80;;;;;;4972247;28;20181;-43
2023/04/03 11:14:26;;;;;;;6.15;2.03;;;10.50;83.50;;;;;;4970548;28;20204;-43
2023/04/03 11:17:03;;;;;;;3.97;1.50;;;10.70;83.10;;;;;;4975540;28;20201;-47
2023/04/03 11:19:38;;;;;;;3.80;1.98;;;10.60;81.40;;;;;;4983755;28;20184;-42
2023/04/03 11:22:27;;;;;;;5.07;1.25;;;10.70;82.70;;;;;;4991509;28;20820;-43
2023/04/03 11:25:12;;;;;;;31.40;28.13;;;10.80;82.10;;;;;;4984637;28;20765;-46
2023/04/03 11:27:56;;;;;;;4.35;2.08;;;11.00;81.20;;;;;;4972105;28;20180;-47
2023/04/03 11:30:34;;;;;;;3.78;1.40;;;10.90;83.50;;;;;;4971667;28;20270;-46
2023/04/03 11:33:18;;;;;;;3.30;2.47;;;11.00;82.90;;;;;;4972012;28;20207;-47
2023/04/03 11:35:53;;;;;;;2.90;1.65;;;11.10;82.30;;;;;;4971808;28;20165;-42
2023/04/03 11:38:34;;;;;;;3.53;1.63;;;11.10;81.10;;;;;;4971551;28;20173;-44
2023/04/03 11:41:01;;;;;;;7.93;2.85;;;11.10;79.20;;;;;;4972079;28;20176;-46
2023/04/03 11:43:29;;;;;;;2.35;1.50;;;11.30;78.40;;;;;;4971959;28;20184;-42
2023/04/03 11:46:03;;;;;;;2.92;1.60;;;11.40;77.80;;;;;;4976684;28;20183;-48
2023/04/03 11:48:29;;;;;;;2.13;1.30;;;11.50;77.40;;;;;;4971746;28;20182;-46
2023/04/03 11:50:55;;;;;;;3.40;1.27;;;11.30;77.00;;;;;;4971343;28;20158;-45
2023/04/03 11:53:38;;;;;;;3.42;1.15;;;11.20;75.90;;;;;;4971552;28;20237;-42
2023/04/03 11:56:27;;;;;;;2.90;1.30;;;11.20;73.30;;;;;;4971081;28;20201;-44
2023/04/03 11:59:11;;;;;;;1.08;0.95;;;11.10;72.30;;;;;;4970091;28;20566;-41
2023/04/03 12:01:49;;;;;;;2.67;1.40;;;11.10;74.20;;;;;;4950569;28;20641;-42
2023/04/03 12:04:17;;;;;;;2.72;1.38;;;11.30;77.50;;;;;;4951889;28;20528;-41
2023/04/03 12:06:52;;;;;;;2.42;1.35;;;11.30;74.60;;;;;;4951951;28;20178;-42
2023/04/03 12:09:39;;;;;;;2.10;1.20;;;11.50;71.00;;;;;;4950515;28;20225;-42
2023/04/03 12:12:32;;;;;;;1.45;1.20;;;11.50;71.10;;;;;;4962865;28;20209;-41
2023/04/03 12:15:38;;;;;;;1.88;1.15;;;11.30;68.10;;;;;;4973874;28;20264;-43
2023/04/03 12:18:42;;;;;;;2.70;1.30;;;11.30;71.20;;;;;;5043107;28;20167;-41
2023/04/03 12:21:08;;;;;;;2.55;1.15;;;11.30;67.80;;;;;;4988934;28;20247;-42
2023/04/03 12:23:38;;;;;;;0.93;0.93;;;11.30;66.70;;;;;;4985921;28;20636;-42
2023/04/03 12:26:19;;;;;;;2.03;1.55;;;11.60;67.20;;;;;;4988398;28;20197;-42
2023/04/03 12:28:46;;;;;;;6.93;3.97;;;11.50;66.60;;;;;;4967647;28;20188;-41
2023/04/03 12:31:12;;;;;;;2.50;1.35;;;11.60;67.30;;;;;;4976029;28;20177;-42
2023/04/03 12:33:57;;;;;;;1.92;1.10;;;11.50;66.30;;;;;;4970947;28;20213;-42
2023/04/03 12:36:37;;;;;;;1.40;1.10;;;11.60;66.70;;;;;;4967831;28;20177;-42
2023/04/03 12:39:12;;;;;;;1.10;0.98;;;11.60;64.10;;;;;;4970191;28;20637;-41
2023/04/03 12:41:49;;;;;;;4.15;1.30;;;11.60;63.00;;;;;;4970408;28;20172;-42
2023/04/03 12:44:15;;;;;;;1.77;1.00;;;11.80;63.10;;;;;;4985131;28;20184;-42
2023/04/03 12:46:46;;;;;;;2.55;1.00;;;11.80;65.30;;;;;;4976101;28;20657;-45
2023/04/03 12:49:35;;;;;;;1.80;1.40;;;12.00;66.80;;;;;;4968967;28;20205;-41
2023/04/03 12:52:05;;;;;;;3.25;1.75;;;12.20;67.30;;;;;;4970126;28;20169;-41
2023/04/03 12:54:42;;;;;;;1.88;1.15;;;12.20;67.60;;;;;;4970740;28;20189;-42
2023/04/03 12:57:17;;;;;;;2.63;1.38;;;12.10;62.80;;;;;;4970290;28;20189;-43
2023/04/03 12:59:45;;;;;;;1.35;1.00;;;12.00;62.70;;;;;;4969794;28;20184;-41
2023/04/03 13:02:23;;;;;;;1.40;1.00;;;11.90;60.20;;;;;;4970246;28;20165;-43
2023/04/03 13:04:50;;;;;;;1.58;1.25;;;11.90;62.40;;;;;;4970050;28;20637;-41
2023/04/03 13:07:25;;;;;;;1.33;0.70;;;11.90;61.70;;;;;;4977871;28;20195;-42
2023/04/03 13:10:22;;;;;;;1.25;1.15;;;11.90;60.80;;;;;;4988709;28;20188;-43
2023/04/03 13:13:06;;;;;;;2.90;1.10;;;11.80;59.60;;;;;;4988918;28;20625;-47
2023/04/03 13:15:43;;;;;;;1.35;1.17;;;12.60;62.00;;;;;;4980001;28;20174;-44
2023/04/03 13:18:28;;;;;;;1.60;1.08;;;12.10;61.30;;;;;;4969958;28;20199;-41
2023/04/03 13:21:16;;;;;;;1.52;0.88;;;12.10;61.90;;;;;;4980468;28;20257;-41